Time;durP1;ratioP1;P1;durP2;ratioP2;P2;SDS_P1;SDS_P2;PMS_P1;PMS_P2;Temp;Humidity;BMP_temperature;BMP_pressure;BME280_temperature;BME280_humidity;BME280_pressure;Samples;Min_cycle;Max_cycle;Signal;HPM_P1;HPM_P2
2022/02/07 00:00:36;;;;;;;0.77;0.50;;;;;;;;;;5131157;27;20938;-66
2022/02/07 00:03:14;;;;;;;1.07;0.97;;;;;;;;;;5117061;28;20564;-67
2022/02/07 00:05:42;;;;;;;0.60;0.40;;;;;;;;;;5131858;28;20489;-66
2022/02/07 00:08:11;;;;;;;0.60;0.40;;;;;;;;;;5130401;28;20449;-66
2022/02/07 00:10:39;;;;;;;0.80;0.50;;;;;;;;;;5131422;28;20454;-66
2022/02/07 00:13:06;;;;;;;0.70;0.40;;;;;;;;;;5130549;28;20451;-66
2022/02/07 00:15:35;;;;;;;4.10;0.50;;;;;;;;;;5131271;28;20873;-66
2022/02/07 00:18:02;;;;;;;0.80;0.50;;;;;;;;;;5129966;28;20442;-66
2022/02/07 00:20:29;;;;;;;0.60;0.40;;;;;;;;;;5131028;28;20811;-66
2022/02/07 00:22:57;;;;;;;0.70;0.40;;;;;;;;;;5131476;28;20478;-66
2022/02/07 00:25:25;;;;;;;0.60;0.40;;;;;;;;;;5131245;28;20538;-66
2022/02/07 00:27:52;;;;;;;0.70;0.50;;;;;;;;;;5130750;28;20455;-66
2022/02/07 00:30:21;;;;;;;0.93;0.60;;;;;;;;;;5130468;28;20449;-66
2022/02/07 00:32:49;;;;;;;1.83;0.67;;;;;;;;;;5131134;28;20450;-66
2022/02/07 00:35:19;;;;;;;0.70;0.50;;;;;;;;;;5130435;28;20439;-67
2022/02/07 00:37:48;;;;;;;0.70;0.43;;;;;;;;;;5130624;28;20474;-67
2022/02/07 00:40:42;;;;;;;0.70;0.50;;;;;;;;;;5130240;28;20442;-67
2022/02/07 00:43:26;;;;;;;2.50;0.60;;;;;;;;;;5127414;28;20589;-67
2022/02/07 00:45:56;;;;;;;0.60;0.40;;;;;;;;;;5131072;28;20890;-67
2022/02/07 00:48:24;;;;;;;0.60;0.50;;;;;;;;;;5130019;28;20454;-67
2022/02/07 00:50:52;;;;;;;1.00;0.60;;;;;;;;;;5130573;27;20477;-67
2022/02/07 00:53:19;;;;;;;1.23;0.50;;;;;;;;;;5133158;27;20508;-67
2022/02/07 00:55:46;;;;;;;1.23;0.60;;;;;;;;;;5135276;27;20472;-67
2022/02/07 00:58:14;;;;;;;0.60;0.40;;;;;;;;;;5123007;27;20493;-66
2022/02/07 01:00:42;;;;;;;0.87;0.50;;;;;;;;;;5134632;27;20948;-66
2022/02/07 01:03:09;;;;;;;0.70;0.50;;;;;;;;;;5134301;27;20559;-67
2022/02/07 01:05:36;;;;;;;2.20;0.40;;;;;;;;;;5134653;27;20472;-66
2022/02/07 01:08:05;;;;;;;1.17;0.57;;;;;;;;;;5133726;27;20454;-67
2022/02/07 01:10:40;;;;;;;1.00;0.67;;;;;;;;;;5134585;27;20439;-67
2022/02/07 01:13:14;;;;;;;1.20;0.60;;;;;;;;;;5133669;27;20514;-67
2022/02/07 01:15:52;;;;;;;1.60;0.40;;;;;;;;;;5134576;27;20537;-66
2022/02/07 01:52:00;;;;;;;1.00;0.57;;;;;;;;;;5088009;28;20511;-66
2022/02/07 01:54:35;;;;;;;2.07;0.60;;;;;;;;;;5087712;28;20444;-66
2022/02/07 01:57:04;;;;;;;1.23;0.60;;;;;;;;;;5087246;28;21206;-66
2022/02/07 01:59:31;;;;;;;0.60;0.40;;;;;;;;;;5088081;28;20455;-66
2022/02/07 02:01:59;;;;;;;0.60;0.40;;;;;;;;;;5088121;28;20449;-65
2022/02/07 02:04:26;;;;;;;0.80;0.60;;;;;;;;;;5087710;28;20536;-66
2022/02/07 02:06:55;;;;;;;0.97;0.70;;;;;;;;;;5087301;28;20484;-65
2022/02/07 02:09:22;;;;;;;6.63;0.80;;;;;;;;;;5087270;28;20769;-66
2022/02/07 02:11:50;;;;;;;2.37;0.60;;;;;;;;;;5087810;28;20453;-66
2022/02/07 02:14:33;;;;;;;0.70;0.40;;;;;;;;;;5086929;28;20475;-66
2022/02/07 02:17:15;;;;;;;0.73;0.50;;;3.50;99.90;;;;;;5082512;28;20523;-66
2022/02/07 02:34:20;;;;;;;1.10;0.67;;;4.80;1.00;;;;;;5074129;28;20427;-66
2022/02/07 02:37:07;;;;;;;2.10;0.60;;;4.80;1.00;;;;;;5086303;28;20979;-66
2022/02/07 02:45:29;;;;;;;0.73;0.70;;;;;;;;;;5086920;28;20431;-66
2022/02/07 02:47:58;;;;;;;1.73;0.67;;;;;;;;;;5083364;28;20444;-66
2022/02/07 02:50:31;;;;;;;3.40;0.80;;;;;;;;;;5086523;28;20496;-66
2022/02/07 02:52:59;;;;;;;1.83;0.77;;;;;;;;;;5087306;28;20536;-66
2022/02/07 02:55:28;;;;;;;0.80;0.50;;;;;;;;;;5086691;28;20459;-66
2022/02/07 02:57:55;;;;;;;1.03;0.80;;;;;;;;;;5085883;28;20445;-66
2022/02/07 03:00:22;;;;;;;1.20;0.67;;;;;;;;;;5086010;28;20538;-66
2022/02/07 03:02:50;;;;;;;1.20;0.70;;;;;;;;;;5073379;28;20453;-66
2022/02/07 03:05:17;;;;;;;1.43;0.60;;;;;;;;;;5071840;28;20441;-66
2022/02/07 03:07:44;;;;;;;1.83;0.80;;;;;;;;;;5072666;28;20441;-66
2022/02/07 03:10:21;;;;;;;2.80;0.73;;;;;;;;;;5072271;28;20980;-66
2022/02/07 03:13:00;;;;;;;4.77;1.10;;;;;;;;;;5061061;28;20446;-66
2022/02/07 03:18:12;;;;;;;5.17;0.90;;;;;;;;;;5071437;28;20905;-66
2022/02/07 03:20:39;;;;;;;3.33;0.80;;;;;;;;;;5072480;28;20464;-66
2022/02/07 03:23:07;;;;;;;1.20;0.77;;;;;;;;;;5072019;28;20445;-66
2022/02/07 03:25:34;;;;;;;1.07;0.97;;;;;;;;;;5072986;28;20445;-66
2022/02/07 03:28:03;;;;;;;1.93;1.00;;;;;;;;;;5072388;28;20441;-66
2022/02/07 03:30:30;;;;;;;4.53;0.97;;;;;;;;;;5072977;28;20481;-65
2022/02/07 03:32:57;;;;;;;2.73;0.93;;;;;;;;;;5072497;28;20463;-66
2022/02/07 03:35:24;;;;;;;2.13;0.73;;;;;;;;;;5071884;28;20460;-66
2022/02/07 03:37:51;;;;;;;2.30;0.90;;;;;;;;;;5071560;28;20441;-66
2022/02/07 03:40:18;;;;;;;6.13;1.20;;;;;;;;;;5072105;28;20823;-66
2022/02/07 03:42:46;;;;;;;3.03;0.80;;;;;;;;;;5072739;28;20856;-66
2022/02/07 03:45:14;;;;;;;2.10;0.97;;;;;;;;;;5071654;28;20456;-66
2022/02/07 03:47:42;;;;;;;1.63;0.83;;;;;;;;;;5071698;28;20949;-66
2022/02/07 03:50:10;;;;;;;0.70;0.40;;;4.70;1.00;;;;;;5071255;28;20493;-66
2022/02/07 03:52:38;;;;;;;2.10;0.77;;;;;;;;;;5072290;28;20446;-66
2022/02/07 03:55:05;;;;;;;1.43;0.50;;;;;;;;;;5071764;28;20455;-66
2022/02/07 03:57:32;;;;;;;0.60;0.50;;;;;;;;;;5071482;28;20455;-66
2022/02/07 04:00:00;;;;;;;0.80;0.60;;;3.40;99.90;;;;;;5072294;28;20484;-66
2022/02/07 04:02:29;;;;;;;0.90;0.50;;;2.80;99.90;;;;;;5071183;28;20462;-66
2022/02/07 04:05:06;;;;;;;0.60;0.40;;;2.80;99.90;;;;;;5071930;28;20449;-66
2022/02/07 04:07:32;;;;;;;0.90;0.70;;;2.80;99.90;;;;;;5071859;28;20449;-66
2022/02/07 04:10:00;;;;;;;0.80;0.57;;;2.70;99.90;;;;;;5072287;28;20493;-66
2022/02/07 04:12:28;;;;;;;2.80;0.60;;;;;;;;;;5071873;28;20532;-66
2022/02/07 04:14:57;;;;;;;1.53;0.57;;;;;;;;;;5071935;28;20537;-66
2022/02/07 04:17:27;;;;;;;1.57;0.70;;;;;;;;;;5070735;28;20449;-66
2022/02/07 04:19:59;;;;;;;1.07;0.70;;;;;;;;;;5071423;28;20520;-66
2022/02/07 04:22:29;;;;;;;1.13;0.60;;;;;;;;;;5071274;28;20480;-66
2022/02/07 04:24:56;;;;;;;2.80;0.60;;;;;;;;;;5071881;28;20454;-65
2022/02/07 04:27:23;;;;;;;0.80;0.50;;;;;;;;;;5070396;28;20803;-66
2022/02/07 04:29:50;;;;;;;1.70;0.50;;;;;;;;;;5071180;28;20457;-66
2022/02/07 04:32:17;;;;;;;1.00;0.60;;;;;;;;;;5070852;28;20445;-66
2022/02/07 04:34:44;;;;;;;1.00;0.60;;;;;;;;;;5071236;28;20453;-66
2022/02/07 04:37:13;;;;;;;1.37;0.63;;;;;;;;;;5070181;28;20438;-66
2022/02/07 04:39:40;;;;;;;1.33;0.53;;;;;;;;;;5071495;28;20445;-66
2022/02/07 04:42:10;;;;;;;0.90;0.50;;;;;;;;;;5070753;28;20453;-66
2022/02/07 04:44:44;;;;;;;0.80;0.57;;;;;;;;;;5071676;28;20538;-66
2022/02/07 04:47:20;;;;;;;3.03;1.97;;;;;;;;;;5070073;28;20445;-66
2022/02/07 04:50:09;;;;;;;1.53;1.17;;;2.60;99.90;;;;;;5070972;28;20991;-65
2022/02/07 04:52:56;;;;;;;3.43;0.63;;;2.90;1.00;;;;;;5071334;28;20554;-66
2022/02/07 04:55:34;;;;;;;3.13;0.73;;;2.90;1.00;;;;;;5061461;28;20449;-66
2022/02/07 04:58:06;;;;;;;2.57;0.70;;;2.90;1.00;;;;;;5068852;28;20453;-66
2022/02/07 05:00:44;;;;;;;3.27;0.80;;;2.90;1.00;;;;;;5071225;28;20456;-66
2022/02/07 05:03:15;;;;;;;2.40;0.87;;;3.00;1.00;;;;;;5070038;28;20499;-66
2022/02/07 05:13:57;;;;;;;1.57;0.83;;;2.80;1.00;;;;;;5070436;28;20952;-66
2022/02/07 05:16:26;;;;;;;4.53;1.40;;;2.90;1.00;;;;;;5070409;28;20446;-66
2022/02/07 05:18:57;;;;;;;2.70;0.90;;;2.80;1.00;;;;;;5070349;28;20477;-66
2022/02/07 05:21:25;;;;;;;5.17;1.47;;;2.90;1.00;;;;;;5070216;28;20751;-66
2022/02/07 05:23:54;;;;;;;2.90;1.10;;;2.90;1.00;;;;;;5071111;28;20449;-68
2022/02/07 05:26:22;;;;;;;7.60;1.50;;;3.00;1.00;;;;;;5072623;28;20541;-68
2022/02/07 05:28:49;;;;;;;5.00;1.07;;;3.00;99.90;;;;;;5070736;28;20541;-68
2022/02/07 05:31:18;;;;;;;2.17;0.90;;;2.90;99.90;;;;;;5070119;28;20473;-68
2022/02/07 05:33:45;;;;;;;4.03;1.50;;;2.90;99.90;;;;;;5070111;28;20507;-69
2022/02/07 05:36:12;;;;;;;2.83;1.13;;;2.90;99.90;;;;;;5071256;28;20528;-67
2022/02/07 05:38:44;;;;;;;2.33;1.03;;;3.00;1.00;;;;;;5070049;28;20524;-67
2022/02/07 05:41:13;;;;;;;2.50;1.17;;;2.90;99.90;;;;;;5070092;28;20474;-67
2022/02/07 05:43:44;;;;;;;2.83;0.90;;;3.00;99.90;;;;;;5071132;28;20446;-66
2022/02/07 05:46:11;;;;;;;4.60;1.33;;;3.10;99.90;;;;;;5070645;28;20448;-68
2022/02/07 05:48:38;;;;;;;1.30;0.70;;;3.10;99.90;;;;;;5070282;28;20457;-66
2022/02/07 05:51:05;;;;;;;3.47;1.03;;;3.00;97.00;;;;;;5068515;28;20488;-66
2022/02/07 05:53:32;;;;;;;1.53;0.77;;;3.00;99.90;;;;;;5070597;28;20452;-67
2022/02/07 05:55:59;;;;;;;2.13;1.17;;;3.10;99.90;;;;;;5070691;28;20448;-66
2022/02/07 05:58:28;;;;;;;2.47;1.10;;;3.30;92.10;;;;;;5069957;28;20458;-66
2022/02/07 06:00:55;;;;;;;2.13;0.70;;;3.20;1.00;;;;;;5070249;28;20476;-66
2022/02/07 06:03:23;;;;;;;1.50;0.80;;;3.30;1.00;;;;;;5070019;28;21106;-67
2022/02/07 06:05:50;;;;;;;6.60;0.97;;;3.40;1.00;;;;;;5070406;28;20450;-66
2022/02/07 06:08:17;;;;;;;1.77;1.10;;;3.30;76.00;;;;;;5069494;28;20453;-66
2022/02/07 06:10:45;;;;;;;6.30;0.97;;;3.20;99.90;;;;;;5069731;28;20485;-66
2022/02/07 06:13:13;;;;;;;5.43;1.33;;;3.30;99.90;;;;;;5069960;28;20456;-66
2022/02/07 06:15:41;;;;;;;2.87;1.20;;;3.30;99.90;;;;;;5070322;28;20452;-66
2022/02/07 06:18:08;;;;;;;3.23;0.90;;;3.20;99.90;;;;;;5069779;28;20515;-66
2022/02/07 06:20:35;;;;;;;1.90;0.87;;;3.30;1.00;;;;;;5069584;28;20461;-66
2022/02/07 06:23:02;;;;;;;4.20;0.70;;;3.30;1.00;;;;;;5070387;28;20483;-66
2022/02/07 06:25:28;;;;;;;0.90;0.77;;;3.20;1.00;;;;;;5070579;28;20453;-66
2022/02/07 06:27:55;;;;;;;1.27;0.80;;;3.20;1.00;;;;;;5070428;28;20453;-66
2022/02/07 06:30:22;;;;;;;3.47;0.83;;;3.30;99.90;;;;;;5069684;28;20540;-66
2022/02/07 06:32:51;;;;;;;3.27;0.67;;;3.30;99.90;;;;;;5070413;28;20492;-66
2022/02/07 06:35:18;;;;;;;4.10;1.20;;;3.20;99.90;;;;;;5069411;28;20469;-66
2022/02/07 06:37:44;;;;;;;2.83;1.00;;;3.30;99.90;;;;;;5072902;28;20536;-66
2022/02/07 06:40:12;;;;;;;1.43;0.90;;;3.30;99.90;;;;;;5073271;28;20449;-67
2022/02/07 06:42:39;;;;;;;4.10;1.23;;;3.30;99.90;;;;;;5073448;28;20464;-66
2022/02/07 06:45:06;;;;;;;3.70;2.60;;;3.40;99.90;;;;;;5073219;28;20543;-66
2022/02/07 06:47:33;;;;;;;2.20;1.23;;;3.40;99.90;;;;;;5073712;28;20968;-66
2022/02/07 06:50:02;;;;;;;1.30;0.70;;;3.40;44.20;;;;;;5073205;28;20484;-66
2022/02/07 06:52:28;;;;;;;2.13;0.80;;;3.40;15.10;;;;;;5072956;28;20576;-67
2022/02/07 06:54:55;;;;;;;2.37;1.00;;;3.40;51.00;;;;;;5060509;28;20448;-66
2022/02/07 06:57:23;;;;;;;1.87;1.13;;;3.40;1.00;;;;;;5072871;28;20479;-66
2022/02/07 06:59:50;;;;;;;6.83;1.30;;;3.40;1.00;;;;;;5073500;28;20834;-66
2022/02/07 07:02:19;;;;;;;3.30;1.20;;;3.50;99.90;;;;;;5072113;28;20454;-66
2022/02/07 07:04:48;;;;;;;5.23;0.80;;;3.40;99.90;;;;;;5073550;28;20528;-67
2022/02/07 07:07:18;;;;;;;4.00;1.20;;;3.40;1.00;;;;;;5072866;28;21253;-66
2022/02/07 07:09:46;;;;;;;7.60;1.10;;;3.50;12.00;;;;;;5073771;28;20578;-66
2022/02/07 07:12:13;;;;;;;5.50;1.33;;;3.50;1.00;;;;;;5072635;28;20894;-67
2022/02/07 07:14:44;;;;;;;1.57;1.10;;;3.60;1.00;;;;;;5073446;28;20511;-67
2022/02/07 07:17:11;;;;;;;4.03;1.40;;;3.60;1.00;;;;;;5072742;28;20544;-67
2022/02/07 07:19:38;;;;;;;3.80;1.07;;;3.50;1.00;;;;;;5072842;28;20460;-66
2022/02/07 07:22:06;;;;;;;3.93;1.13;;;3.60;1.00;;;;;;5071826;28;20463;-67
2022/02/07 07:24:35;;;;;;;3.40;1.17;;;3.60;1.00;;;;;;5072877;28;21315;-67
2022/02/07 07:27:02;;;;;;;1.73;1.03;;;3.50;1.00;;;;;;5073045;28;20449;-66
2022/02/07 07:29:33;;;;;;;1.80;1.30;;;3.50;1.00;;;;;;5072755;28;20483;-66
2022/02/07 07:32:03;;;;;;;2.30;1.53;;;3.50;1.00;;;;;;5072675;28;20469;-66
2022/02/07 07:34:30;;;;;;;2.70;1.13;;;3.60;1.00;;;;;;5072985;28;20535;-67
2022/02/07 07:36:58;;;;;;;3.00;1.10;;;3.70;1.00;;;;;;5073141;28;20442;-66
2022/02/07 07:39:26;;;;;;;3.43;1.23;;;3.70;99.90;;;;;;5071833;28;20442;-66
2022/02/07 07:41:56;;;;;;;1.97;0.90;;;3.70;1.00;;;;;;5072353;28;20461;-66
2022/02/07 07:44:28;;;;;;;9.77;1.67;;;3.70;1.00;;;;;;5071757;28;20450;-66
2022/02/07 07:46:57;;;;;;;4.90;1.33;;;3.60;1.00;;;;;;5059400;28;20491;-66
2022/02/07 07:49:37;;;;;;;1.40;1.00;;;3.60;1.00;;;;;;5071719;28;20457;-66
2022/02/07 07:52:09;;;;;;;2.27;0.97;;;3.50;1.00;;;;;;5072016;28;20504;-66
2022/02/07 07:54:49;;;;;;;3.60;1.13;;;3.50;1.00;;;;;;5072719;28;20439;-67
2022/02/07 08:02:49;;;;;;;3.50;1.30;;;3.50;1.00;;;;;;5072328;28;20432;-66
2022/02/07 08:05:24;;;;;;;2.73;1.40;;;3.50;1.00;;;;;;5071618;28;20540;-66
2022/02/07 08:07:55;;;;;;;2.40;1.33;;;3.50;1.00;;;;;;5072450;28;20496;-66
2022/02/07 08:10:43;;;;;;;3.97;1.67;;;3.50;1.00;;;;;;5070984;28;20532;-67
2022/02/07 08:13:16;;;;;;;4.83;1.23;;;3.60;99.90;;;;;;5072169;28;20477;-67
2022/02/07 08:15:43;;;;;;;5.43;1.63;;;3.60;1.00;;;;;;5072489;28;20509;-66
2022/02/07 08:18:10;;;;;;;6.90;1.53;;;3.60;1.00;;;;;;5071465;28;20528;-66
2022/02/07 08:20:38;;;;;;;2.57;1.53;;;3.60;99.90;;;;;;5071453;28;20552;-67
2022/02/07 08:23:05;;;;;;;5.57;1.33;;;3.80;1.00;;;;;;5071270;28;20496;-66
2022/02/07 08:25:33;;;;;;;3.80;1.43;;;3.70;99.90;;;;;;5072010;28;20451;-66
2022/02/07 08:28:00;;;;;;;1.70;1.13;;;3.90;99.90;;;;;;5071951;28;20529;-66
2022/02/07 08:30:28;;;;;;;4.90;1.33;;;3.80;1.00;;;;;;5070727;28;20460;-66
2022/02/07 08:32:57;;;;;;;5.90;2.03;;;3.90;1.00;;;;;;5072281;28;20576;-67
2022/02/07 08:35:24;;;;;;;4.93;1.63;;;3.80;1.00;;;;;;5071095;28;20452;-66
2022/02/07 08:37:51;;;;;;;3.57;1.37;;;3.80;1.00;;;;;;5071718;28;20536;-66
2022/02/07 08:40:18;;;;;;;3.57;1.90;;;3.90;99.90;;;;;;5070804;28;20437;-66
2022/02/07 08:42:45;;;;;;;4.90;0.97;;;4.00;99.90;;;;;;5071864;28;20450;-67
2022/02/07 08:45:14;;;;;;;2.50;1.20;;;4.00;99.90;;;;;;5070645;28;20452;-67
2022/02/07 08:47:43;;;;;;;3.80;1.30;;;4.10;99.90;;;;;;5071379;28;20453;-66
2022/02/07 08:50:11;;;;;;;5.07;1.47;;;4.10;99.90;;;;;;5070057;28;20838;-67
2022/02/07 08:52:41;;;;;;;3.40;1.23;;;4.20;99.90;;;;;;5071105;28;20517;-66
2022/02/07 08:55:11;;;;;;;5.33;1.20;;;4.20;1.00;;;;;;5070859;28;20446;-66
2022/02/07 08:57:43;;;;;;;3.97;1.20;;;4.40;99.90;;;;;;5071438;28;20762;-67
2022/02/07 09:00:16;;;;;;;4.37;1.97;;;4.50;99.90;;;;;;5069984;28;20450;-67
2022/02/07 09:03:11;;;;;;;4.60;1.27;;;4.60;99.90;;;;;;5071151;28;20480;-67
2022/02/07 09:05:45;;;;;;;3.37;0.93;;;4.70;99.90;;;;;;5070867;28;20955;-67
2022/02/07 09:08:26;;;;;;;4.50;1.07;;;4.80;99.90;;;;;;5070647;28;20454;-67
2022/02/07 09:10:54;;;;;;;5.37;1.47;;;4.80;1.00;;;;;;5070954;28;20480;-67
2022/02/07 09:13:28;;;;;;;2.67;1.50;;;4.80;99.90;;;;;;5069908;28;20496;-67
2022/02/07 09:16:03;;;;;;;1.90;1.13;;;4.80;1.00;;;;;;5071182;28;20931;-67
2022/02/07 09:18:31;;;;;;;9.73;2.20;;;4.80;1.00;;;;;;5071237;28;20447;-67
2022/02/07 09:21:00;;;;;;;4.00;1.90;;;4.80;99.90;;;;;;5070785;28;20452;-67
2022/02/07 09:23:28;;;;;;;5.13;1.03;;;4.90;99.90;;;;;;5071048;28;20450;-67
2022/02/07 09:25:55;;;;;;;6.37;1.60;;;5.10;1.00;;;;;;5071147;28;20442;-67
2022/02/07 09:28:23;;;;;;;2.33;0.93;;;;;;;;;;5069832;28;20949;-67
2022/02/07 09:30:50;;;;;;;3.50;1.40;;;;;;;;;;5070893;28;20453;-67
2022/02/07 09:33:17;;;;;;;4.73;1.20;;;;;;;;;;5070015;28;20499;-67
2022/02/07 09:35:46;;;;;;;3.50;1.43;;;;;;;;;;5070722;28;20445;-68
2022/02/07 09:38:13;;;;;;;6.57;2.03;;;;;;;;;;5069807;28;20532;-67
2022/02/07 09:40:41;;;;;;;9.60;1.60;;;;;;;;;;5070503;28;20545;-67
2022/02/07 09:43:09;;;;;;;2.80;1.37;;;;;;;;;;5070063;28;20826;-67
2022/02/07 09:45:39;;;;;;;3.80;1.13;;;;;;;;;;5070552;28;20457;-68
2022/02/07 09:48:08;;;;;;;3.33;1.17;;;;;;;;;;5069700;28;20499;-67
2022/02/07 09:50:36;;;;;;;4.97;1.50;;;;;;;;;;5069908;28;20585;-68
2022/02/07 09:53:05;;;;;;;4.87;1.23;;;;;;;;;;5070242;28;20579;-69
2022/02/07 09:55:33;;;;;;;3.00;1.60;;;;;;;;;;5070670;28;20565;-67
2022/02/07 09:58:00;;;;;;;5.40;2.00;;;;;;;;;;5070446;28;20484;-67
2022/02/07 10:00:32;;;;;;;2.60;1.63;;;;;;;;;;5070717;28;20445;-67
2022/02/07 10:03:07;;;;;;;2.50;1.53;;;;;;;;;;5071141;28;20456;-68
2022/02/07 10:05:45;;;;;;;8.10;0.90;;;;;;;;;;5070399;28;20456;-68
2022/02/07 10:08:19;;;;;;;2.43;1.70;;;;;;;;;;5070148;28;20437;-67
2022/02/07 10:10:59;;;;;;;2.13;1.50;;;;;;;;;;5070119;28;20438;-67
2022/02/07 10:13:40;;;;;;;4.27;1.20;;;;;;;;;;5073519;28;20534;-68
2022/02/07 10:16:24;;;;;;;4.40;1.40;;;;;;;;;;5061125;28;20441;-67
2022/02/07 10:19:02;;;;;;;4.03;1.20;;;;;;;;;;5074378;28;20503;-67
2022/02/07 10:21:59;;;;;;;2.03;1.00;;;;;;;;;;5074033;28;20498;-68
2022/02/07 10:38:36;;;;;;;2.80;1.83;;;;;;;;;;5039501;28;20437;-68
2022/02/07 10:41:23;;;;;;;5.30;1.77;;;;;;;;;;5073272;28;20536;-68
2022/02/07 10:44:04;;;;;;;2.90;1.40;;;5.20;1.00;;;;;;5074195;28;20506;-68
2022/02/07 10:46:35;;;;;;;4.13;1.03;;;6.30;1.00;;;;;;5074401;28;20453;-69
2022/02/07 10:49:08;;;;;;;3.67;1.30;;;6.40;1.00;;;;;;5073848;28;20528;-68
2022/02/07 10:51:36;;;;;;;5.73;1.30;;;6.30;1.00;;;;;;5072944;28;20477;-68
2022/02/07 10:54:05;;;;;;;3.17;1.30;;;6.30;1.00;;;;;;5073647;28;20821;-68
2022/02/07 10:56:38;;;;;;;4.30;1.53;;;6.50;1.00;;;;;;5075059;28;20451;-69
2022/02/07 10:59:08;;;;;;;4.70;1.60;;;6.60;1.00;;;;;;5078399;28;20528;-68
2022/02/07 11:02:33;;;;;;;3.73;1.27;;;6.40;1.00;;;;;;5079345;28;20433;-69
2022/02/07 11:04:38;;;;;;;2.97;1.30;;;6.30;1.00;;;;;;5072919;28;20453;-69
2022/02/07 11:07:06;;;;;;;3.10;2.03;;;6.50;1.00;;;;;;5072646;28;20450;-68
2022/02/07 11:09:39;;;;;;;1.77;0.83;;;6.70;1.00;;;;;;5073336;28;20445;-69
2022/02/07 11:15:10;;;;;;;5.73;1.03;;;6.80;99.90;;;;;;5047137;28;20437;-69
2022/02/07 11:18:14;;;;;;;3.17;1.67;;;6.70;99.90;;;;;;5073384;28;20460;-69
2022/02/07 11:23:29;;;;;;;3.10;1.50;;;6.70;99.90;;;;;;5069189;28;20444;-70
2022/02/07 11:26:02;;;;;;;10.43;1.20;;;6.50;99.90;;;;;;5060766;28;20852;-71
2022/02/07 11:28:39;;;;;;;5.40;1.50;;;6.50;99.90;;;;;;5073449;28;20446;-70
2022/02/07 11:31:08;;;;;;;2.80;1.27;;;6.50;99.90;;;;;;5072234;28;20456;-69
2022/02/07 11:33:54;;;;;;;3.20;1.63;;;6.40;99.90;;;;;;5073032;28;20488;-71
2022/02/07 11:36:27;;;;;;;3.00;0.90;;;6.40;99.90;;;;;;5071776;28;20441;-71
2022/02/07 11:38:59;;;;;;;4.63;1.27;;;6.20;99.90;;;;;;5073077;28;20441;-71
2022/02/07 11:41:26;;;;;;;9.30;1.47;;;6.20;99.90;;;;;;5071637;28;20621;-71
2022/02/07 11:43:54;;;;;;;2.93;1.50;;;6.20;99.90;;;;;;5072651;28;20957;-71
2022/02/07 11:46:23;;;;;;;2.40;1.33;;;6.20;99.90;;;;;;5072024;28;20441;-71
2022/02/07 11:48:52;;;;;;;7.77;1.90;;;6.10;99.90;;;;;;5072592;28;20952;-72
2022/02/07 11:51:21;;;;;;;7.57;1.27;;;6.20;99.90;;;;;;5070817;28;20594;-71
2022/02/07 11:53:51;;;;;;;6.10;1.73;;;6.20;99.90;;;;;;5072401;28;20485;-71
2022/02/07 11:56:29;;;;;;;2.23;1.20;;;6.20;99.90;;;;;;5072087;28;20465;-71
2022/02/07 11:59:28;;;;;;;2.00;1.27;;;6.20;99.90;;;;;;5072587;28;20437;-71
2022/02/07 12:02:01;;;;;;;3.77;1.30;;;6.30;99.90;;;;;;5072020;28;20925;-71
2022/02/07 12:04:34;;;;;;;1.20;0.87;;;6.30;99.90;;;;;;5072527;28;20477;-72
2022/02/07 12:07:09;;;;;;;3.97;1.60;;;6.40;99.90;;;;;;5072408;28;20877;-72
2022/02/07 12:09:36;;;;;;;2.50;1.50;;;6.30;99.90;;;;;;5072849;28;20477;-72
2022/02/07 12:12:04;;;;;;;5.80;1.20;;;6.20;99.90;;;;;;5071673;28;20866;-70
2022/02/07 12:14:35;;;;;;;3.00;1.10;;;6.20;99.90;;;;;;5071927;28;20499;-72
2022/02/07 12:17:03;;;;;;;3.03;1.07;;;6.10;99.90;;;;;;5072117;28;20528;-71
2022/02/07 12:19:38;;;;;;;4.63;1.53;;;6.10;99.90;;;;;;5072134;28;20582;-73
2022/02/07 12:22:18;;;;;;;5.23;1.50;;;6.20;99.90;;;;;;5070838;28;20472;-70
2022/02/07 12:24:52;;;;;;;6.37;1.23;;;6.20;99.90;;;;;;5072260;28;20473;-72
2022/02/07 12:27:20;;;;;;;8.83;1.47;;;6.40;99.90;;;;;;5058365;28;20442;-73
2022/02/07 12:30:05;;;;;;;1.90;0.90;;;6.50;99.90;;;;;;5071376;28;20449;-72
2022/02/07 12:32:33;;;;;;;2.47;1.27;;;6.40;99.90;;;;;;5071935;28;20568;-71
2022/02/07 12:35:00;;;;;;;1.10;0.67;;;6.40;99.90;;;;;;5070422;28;21000;-73
2022/02/07 12:37:27;;;;;;;3.03;1.40;;;6.40;99.90;;;;;;5070873;28;20492;-73
2022/02/07 12:39:55;;;;;;;4.63;1.13;;;6.50;99.90;;;;;;5071116;28;20542;-72
2022/02/07 12:42:23;;;;;;;4.07;1.47;;;6.60;99.90;;;;;;5071091;28;20536;-73
2022/02/07 12:44:54;;;;;;;2.87;1.30;;;6.50;99.90;;;;;;5071751;28;20445;-73
2022/02/07 12:47:21;;;;;;;5.83;1.40;;;6.60;99.90;;;;;;5070981;28;20708;-72
2022/02/07 12:49:50;;;;;;;3.80;1.57;;;6.70;99.90;;;;;;5070701;28;20481;-71
2022/02/07 12:52:17;;;;;;;4.73;1.30;;;6.50;99.90;;;;;;5071412;28;20457;-72
2022/02/07 12:54:44;;;;;;;5.03;1.33;;;6.60;99.90;;;;;;5071587;28;20489;-72
2022/02/07 12:57:11;;;;;;;4.20;1.43;;;6.60;99.90;;;;;;5071260;28;20452;-72
2022/02/07 12:59:38;;;;;;;7.10;1.30;;;6.50;99.90;;;;;;5072204;28;20536;-72
2022/02/07 13:02:06;;;;;;;3.63;1.37;;;6.40;99.90;;;;;;5070568;28;20861;-70
2022/02/07 13:04:33;;;;;;;1.37;0.87;;;6.30;99.90;;;;;;5071289;28;20460;-72
2022/02/07 13:07:05;;;;;;;2.50;1.13;;;;;;;;;;5071197;28;20529;-72
2022/02/07 13:09:40;;;;;;;4.10;2.03;;;;;;;;;;5071023;28;20449;-72
2022/02/07 13:12:14;;;;;;;4.17;1.27;;;;;;;;;;5070411;28;20472;-71
2022/02/07 13:14:43;;;;;;;3.10;1.40;;;;;;;;;;5071275;28;20472;-72
2022/02/07 13:17:12;;;;;;;7.73;1.60;;;;;;;;;;5070109;28;20445;-72
2022/02/07 13:19:40;;;;;;;4.83;1.80;;;;;;;;;;5071348;28;20472;-72
2022/02/07 13:22:07;;;;;;;4.23;1.50;;;;;;;;;;5070132;28;20871;-72
2022/02/07 13:24:35;;;;;;;3.23;1.17;;;;;;;;;;5071095;28;20456;-72
2022/02/07 13:27:03;;;;;;;3.77;1.13;;;;;;;;;;5070740;28;20548;-70
2022/02/07 13:29:35;;;;;;;4.10;1.27;;;;;;;;;;5070608;28;20449;-72
2022/02/07 13:32:04;;;;;;;4.10;1.43;;;;;;;;;;5069903;28;20452;-70
2022/02/07 13:34:33;;;;;;;3.93;1.53;;;;;;;;;;5071046;28;20485;-73
2022/02/07 13:37:08;;;;;;;2.37;1.10;;;;;;;;;;5071074;28;20536;-72
2022/02/07 13:39:50;;;;;;;3.47;1.97;;;;;;;;;;5071660;28;20444;-72
2022/02/07 13:42:17;;;;;;;6.73;1.60;;;;;;;;;;5074381;28;20450;-72
2022/02/07 13:44:45;;;;;;;4.07;1.43;;;;;;;;;;5083703;28;20492;-71
2022/02/07 13:47:12;;;;;;;3.20;1.50;;;;;;;;;;5084125;28;20513;-72
2022/02/07 13:49:54;;;;;;;2.70;1.33;;;;;;;;;;5076720;28;20479;-72
2022/02/07 13:52:21;;;;;;;2.83;1.50;;;;;;;;;;5070908;28;20445;-72
2022/02/07 13:54:48;;;;;;;3.83;1.10;;;;;;;;;;5070698;28;20485;-72
2022/02/07 13:57:16;;;;;;;4.00;1.17;;;;;;;;;;5070172;28;20521;-72
2022/02/07 13:59:43;;;;;;;7.90;1.50;;;6.10;99.90;;;;;;5069909;28;20567;-71
2022/02/07 14:02:29;;;;;;;6.40;1.90;;;6.80;1.00;;;;;;5070249;28;20532;-73
2022/02/07 14:04:58;;;;;;;1.70;1.27;;;7.00;1.00;;;;;;5070704;28;20820;-72
2022/02/07 14:07:25;;;;;;;6.83;1.67;;;6.90;1.00;;;;;;5069383;28;20451;-73
2022/02/07 14:09:52;;;;;;;4.67;1.60;;;7.00;1.00;;;;;;5069971;28;20515;-72
2022/02/07 14:12:20;;;;;;;4.10;1.10;;;7.00;1.00;;;;;;5069263;28;20456;-72
2022/02/07 14:14:47;;;;;;;5.90;1.93;;;7.00;99.90;;;;;;5070579;28;20489;-72
2022/02/07 14:17:14;;;;;;;3.47;1.00;;;7.10;99.90;;;;;;5070107;28;20445;-72
2022/02/07 14:19:46;;;;;;;7.13;1.30;;;6.90;99.90;;;;;;5070305;28;20514;-71
2022/02/07 14:22:14;;;;;;;5.00;1.20;;;6.90;1.00;;;;;;5069809;28;20540;-72
2022/02/07 14:24:41;;;;;;;1.60;1.10;;;7.00;99.90;;;;;;5070609;28;20533;-72
2022/02/07 14:27:09;;;;;;;2.23;1.50;;;7.10;99.90;;;;;;5069927;28;20813;-72
2022/02/07 14:29:36;;;;;;;3.43;1.40;;;7.30;99.90;;;;;;5071584;28;20449;-72
2022/02/07 14:32:03;;;;;;;3.57;1.33;;;7.10;99.90;;;;;;5070250;28;20448;-71
2022/02/07 14:34:30;;;;;;;6.47;2.43;;;7.30;99.90;;;;;;5069778;28;21048;-72
2022/02/07 14:36:57;;;;;;;4.80;1.60;;;7.30;99.90;;;;;;5069677;28;20529;-72
2022/02/07 14:39:25;;;;;;;3.30;1.20;;;7.30;99.90;;;;;;5069366;28;20973;-72
2022/02/07 14:41:53;;;;;;;3.97;1.30;;;7.30;99.90;;;;;;5069863;28;20553;-71
2022/02/07 14:44:27;;;;;;;5.33;1.50;;;7.20;99.90;;;;;;5069512;28;20472;-72
2022/02/07 14:47:05;;;;;;;4.87;1.80;;;7.20;99.90;;;;;;5057723;28;20448;-72
2022/02/07 14:49:32;;;;;;;2.50;1.50;;;7.30;99.90;;;;;;5069405;28;20531;-70
2022/02/07 14:52:02;;;;;;;4.10;1.90;;;7.40;99.90;;;;;;5069815;28;20448;-71
2022/02/07 14:54:32;;;;;;;7.83;1.60;;;7.30;99.90;;;;;;5069705;28;20480;-72
2022/02/07 14:56:59;;;;;;;10.10;1.43;;;7.20;99.90;;;;;;5069950;28;20441;-71
2022/02/07 14:59:26;;;;;;;12.63;2.33;;;6.90;99.90;;;;;;5073267;28;20611;-72
2022/02/07 15:01:54;;;;;;;5.00;1.60;;;6.90;99.90;;;;;;5073259;28;20445;-71
2022/02/07 15:04:21;;;;;;;3.77;1.37;;;6.80;99.90;;;;;;5073417;28;20449;-72
2022/02/07 15:06:48;;;;;;;6.70;1.57;;;6.70;99.90;;;;;;5073926;28;20817;-71
2022/02/07 15:09:17;;;;;;;3.23;1.60;;;6.70;99.90;;;;;;5072756;28;20952;-71
2022/02/07 15:11:47;;;;;;;8.67;1.70;;;6.60;99.90;;;;;;5073148;28;20453;-72
2022/02/07 15:14:14;;;;;;;5.27;1.57;;;6.50;99.90;;;;;;5072227;28;21007;-71
2022/02/07 15:16:40;;;;;;;1.93;1.30;;;6.40;99.90;;;;;;5073529;28;20883;-72
2022/02/07 15:19:07;;;;;;;6.37;2.60;;;6.50;99.90;;;;;;5072334;28;20790;-72
2022/02/07 15:21:34;;;;;;;2.37;1.37;;;6.50;99.90;;;;;;5072739;28;20461;-72
2022/02/07 15:24:01;;;;;;;3.00;1.53;;;6.60;99.90;;;;;;5073312;28;20885;-73